sensor_id;sensor_type;location;lat;lon;timestamp;P1;durP1;ratioP1;P2;durP2;ratioP2
6424;SDS011;12193;42.642;23.384;2022-10-28T00:01:43;7.40;;;3.33;;
6424;SDS011;12193;42.642;23.384;2022-10-28T00:04:13;6.87;;;3.37;;
6424;SDS011;12193;42.642;23.384;2022-10-28T00:06:42;4.30;;;2.70;;
6424;SDS011;12193;42.642;23.384;2022-10-28T04:08:27;7.80;;;3.97;;
6424;SDS011;12193;42.642;23.384;2022-10-28T04:10:56;7.83;;;3.93;;
6424;SDS011;12193;42.642;23.384;2022-10-28T04:13:26;5.40;;;3.27;;
6424;SDS011;12193;42.642;23.384;2022-10-28T04:15:55;8.07;;;3.40;;
6424;SDS011;12193;42.642;23.384;2022-10-28T04:18:26;7.87;;;3.60;;
6424;SDS011;12193;42.642;23.384;2022-10-28T04:20:57;7.00;;;4.13;;
6424;SDS011;12193;42.642;23.384;2022-10-28T04:23:28;7.17;;;4.00;;
6424;SDS011;12193;42.642;23.384;2022-10-28T04:25:58;5.67;;;3.50;;
6424;SDS011;12193;42.642;23.384;2022-10-28T04:28:27;6.57;;;3.73;;
6424;SDS011;12193;42.642;23.384;2022-10-28T04:30:57;6.20;;;3.87;;
6424;SDS011;12193;42.642;23.384;2022-10-28T04:33:27;8.77;;;3.77;;
6424;SDS011;12193;42.642;23.384;2022-10-28T04:35:56;9.90;;;3.97;;
6424;SDS011;12193;42.642;23.384;2022-10-28T04:38:26;8.50;;;3.80;;
6424;SDS011;12193;42.642;23.384;2022-10-28T04:40:57;6.27;;;3.67;;
6424;SDS011;12193;42.642;23.384;2022-10-28T04:43:27;5.70;;;3.73;;
6424;SDS011;12193;42.642;23.384;2022-10-28T04:45:56;6.47;;;3.80;;
6424;SDS011;12193;42.642;23.384;2022-10-28T04:48:31;8.63;;;3.60;;
6424;SDS011;12193;42.642;23.384;2022-10-28T04:51:00;6.17;;;3.80;;
6424;SDS011;12193;42.642;23.384;2022-10-28T04:53:32;13.67;;;4.03;;
6424;SDS011;12193;42.642;23.384;2022-10-28T04:56:01;5.90;;;3.80;;
6424;SDS011;12193;42.642;23.384;2022-10-28T04:58:30;7.23;;;3.70;;
6424;SDS011;12193;42.642;23.384;2022-10-28T05:01:03;6.93;;;3.73;;
6424;SDS011;12193;42.642;23.384;2022-10-28T05:03:33;8.40;;;3.43;;
6424;SDS011;12193;42.642;23.384;2022-10-28T05:06:03;6.43;;;3.63;;
6424;SDS011;12193;42.642;23.384;2022-10-28T05:08:35;5.43;;;3.40;;
6424;SDS011;12193;42.642;23.384;2022-10-28T05:11:04;7.47;;;3.87;;
6424;SDS011;12193;42.642;23.384;2022-10-28T05:13:33;7.20;;;3.87;;
6424;SDS011;12193;42.642;23.384;2022-10-28T05:16:03;9.30;;;3.93;;
6424;SDS011;12193;42.642;23.384;2022-10-28T05:18:33;8.70;;;4.50;;
6424;SDS011;12193;42.642;23.384;2022-10-28T05:21:02;12.47;;;3.97;;
6424;SDS011;12193;42.642;23.384;2022-10-28T05:23:31;14.60;;;4.20;;
6424;SDS011;12193;42.642;23.384;2022-10-28T05:26:03;6.47;;;3.87;;
6424;SDS011;12193;42.642;23.384;2022-10-28T05:28:33;5.83;;;3.40;;
6424;SDS011;12193;42.642;23.384;2022-10-28T05:31:02;5.53;;;3.80;;
6424;SDS011;12193;42.642;23.384;2022-10-28T05:33:31;6.73;;;3.97;;
6424;SDS011;12193;42.642;23.384;2022-10-28T05:36:01;5.10;;;3.50;;
6424;SDS011;12193;42.642;23.384;2022-10-28T05:38:30;6.97;;;3.80;;
6424;SDS011;12193;42.642;23.384;2022-10-28T05:41:02;8.33;;;4.10;;
6424;SDS011;12193;42.642;23.384;2022-10-28T05:43:32;9.43;;;5.40;;
6424;SDS011;12193;42.642;23.384;2022-10-28T05:46:01;7.73;;;3.93;;
6424;SDS011;12193;42.642;23.384;2022-10-28T05:48:30;10.67;;;4.20;;
6424;SDS011;12193;42.642;23.384;2022-10-28T05:50:59;7.37;;;3.50;;
6424;SDS011;12193;42.642;23.384;2022-10-28T05:53:29;5.40;;;3.60;;
6424;SDS011;12193;42.642;23.384;2022-10-28T05:55:58;6.83;;;3.90;;
6424;SDS011;12193;42.642;23.384;2022-10-28T05:58:30;5.90;;;3.73;;
6424;SDS011;12193;42.642;23.384;2022-10-28T06:00:59;5.73;;;3.60;;
6424;SDS011;12193;42.642;23.384;2022-10-28T06:03:28;5.73;;;3.70;;
6424;SDS011;12193;42.642;23.384;2022-10-28T06:05:57;8.10;;;3.63;;
6424;SDS011;12193;42.642;23.384;2022-10-28T06:08:27;7.00;;;3.90;;
6424;SDS011;12193;42.642;23.384;2022-10-28T06:10:56;7.93;;;4.00;;
6424;SDS011;12193;42.642;23.384;2022-10-28T06:13:26;8.17;;;3.77;;
6424;SDS011;12193;42.642;23.384;2022-10-28T06:15:57;7.87;;;4.30;;
6424;SDS011;12193;42.642;23.384;2022-10-28T06:18:27;5.57;;;3.70;;
6424;SDS011;12193;42.642;23.384;2022-10-28T06:20:56;8.60;;;4.50;;
6424;SDS011;12193;42.642;23.384;2022-10-28T06:23:27;8.80;;;5.10;;
6424;SDS011;12193;42.642;23.384;2022-10-28T06:25:56;12.90;;;5.23;;
6424;SDS011;12193;42.642;23.384;2022-10-28T06:28:26;12.23;;;5.80;;
6424;SDS011;12193;42.642;23.384;2022-10-28T06:31:02;14.20;;;6.67;;
6424;SDS011;12193;42.642;23.384;2022-10-28T06:33:33;12.70;;;6.87;;
6424;SDS011;12193;42.642;23.384;2022-10-28T06:36:03;13.93;;;8.03;;
6424;SDS011;12193;42.642;23.384;2022-10-28T06:38:33;15.97;;;7.10;;
6424;SDS011;12193;42.642;23.384;2022-10-28T06:41:02;15.13;;;7.17;;
6424;SDS011;12193;42.642;23.384;2022-10-28T06:43:32;16.67;;;8.13;;
6424;SDS011;12193;42.642;23.384;2022-10-28T06:46:03;21.33;;;7.80;;
6424;SDS011;12193;42.642;23.384;2022-10-28T06:48:33;17.77;;;7.57;;
6424;SDS011;12193;42.642;23.384;2022-10-28T06:51:02;19.20;;;7.47;;
6424;SDS011;12193;42.642;23.384;2022-10-28T06:53:32;15.57;;;7.50;;
6424;SDS011;12193;42.642;23.384;2022-10-28T06:56:01;15.13;;;7.33;;
6424;SDS011;12193;42.642;23.384;2022-10-28T06:58:31;12.63;;;6.97;;
6424;SDS011;12193;42.642;23.384;2022-10-28T07:01:04;14.20;;;6.80;;
6424;SDS011;12193;42.642;23.384;2022-10-28T07:03:33;12.77;;;7.63;;
6424;SDS011;12193;42.642;23.384;2022-10-28T07:06:03;17.07;;;6.70;;
6424;SDS011;12193;42.642;23.384;2022-10-28T07:08:33;14.00;;;6.53;;
6424;SDS011;12193;42.642;23.384;2022-10-28T07:11:02;12.60;;;6.47;;
6424;SDS011;12193;42.642;23.384;2022-10-28T07:13:32;15.73;;;7.07;;
6424;SDS011;12193;42.642;23.384;2022-10-28T07:16:04;11.93;;;6.27;;
6424;SDS011;12193;42.642;23.384;2022-10-28T07:18:33;16.17;;;7.07;;
6424;SDS011;12193;42.642;23.384;2022-10-28T07:21:03;14.47;;;6.23;;
6424;SDS011;12193;42.642;23.384;2022-10-28T07:23:32;11.40;;;6.53;;
6424;SDS011;12193;42.642;23.384;2022-10-28T07:26:01;16.97;;;6.13;;
6424;SDS011;12193;42.642;23.384;2022-10-28T07:28:31;12.77;;;5.93;;
6424;SDS011;12193;42.642;23.384;2022-10-28T07:31:00;12.20;;;5.63;;
6424;SDS011;12193;42.642;23.384;2022-10-28T07:33:32;12.57;;;5.83;;
6424;SDS011;12193;42.642;23.384;2022-10-28T07:36:02;11.70;;;6.03;;
6424;SDS011;12193;42.642;23.384;2022-10-28T07:38:32;18.60;;;6.10;;
6424;SDS011;12193;42.642;23.384;2022-10-28T07:41:02;16.20;;;7.13;;
6424;SDS011;12193;42.642;23.384;2022-10-28T07:43:34;15.30;;;6.90;;
6424;SDS011;12193;42.642;23.384;2022-10-28T07:46:04;17.50;;;7.30;;
6424;SDS011;12193;42.642;23.384;2022-10-28T07:48:37;15.13;;;7.50;;
6424;SDS011;12193;42.642;23.384;2022-10-28T07:51:09;21.17;;;7.60;;
6424;SDS011;12193;42.642;23.384;2022-10-28T07:53:39;14.13;;;7.20;;
6424;SDS011;12193;42.642;23.384;2022-10-28T07:56:09;17.10;;;7.10;;
6424;SDS011;12193;42.642;23.384;2022-10-28T07:58:40;19.37;;;7.23;;
6424;SDS011;12193;42.642;23.384;2022-10-28T08:01:12;20.30;;;8.60;;
6424;SDS011;12193;42.642;23.384;2022-10-28T08:03:45;21.47;;;8.70;;
6424;SDS011;12193;42.642;23.384;2022-10-28T08:06:16;23.57;;;9.17;;
6424;SDS011;12193;42.642;23.384;2022-10-28T08:08:47;19.73;;;8.67;;
6424;SDS011;12193;42.642;23.384;2022-10-28T08:11:17;20.07;;;9.27;;
6424;SDS011;12193;42.642;23.384;2022-10-28T08:13:48;19.80;;;8.93;;
6424;SDS011;12193;42.642;23.384;2022-10-28T08:16:18;19.23;;;8.27;;
6424;SDS011;12193;42.642;23.384;2022-10-28T08:18:50;24.70;;;8.73;;
6424;SDS011;12193;42.642;23.384;2022-10-28T08:21:20;16.67;;;8.40;;
6424;SDS011;12193;42.642;23.384;2022-10-28T08:23:49;19.30;;;8.07;;
6424;SDS011;12193;42.642;23.384;2022-10-28T08:26:18;19.63;;;9.30;;
6424;SDS011;12193;42.642;23.384;2022-10-28T08:28:48;19.10;;;9.40;;
6424;SDS011;12193;42.642;23.384;2022-10-28T08:31:17;18.47;;;8.47;;
6424;SDS011;12193;42.642;23.384;2022-10-28T08:33:47;20.43;;;9.77;;
6424;SDS011;12193;42.642;23.384;2022-10-28T08:36:19;15.43;;;8.40;;
6424;SDS011;12193;42.642;23.384;2022-10-28T08:38:48;15.47;;;8.77;;
6424;SDS011;12193;42.642;23.384;2022-10-28T08:41:20;16.50;;;9.20;;
6424;SDS011;12193;42.642;23.384;2022-10-28T08:44:04;18.60;;;8.07;;
6424;SDS011;12193;42.642;23.384;2022-10-28T08:47:06;18.80;;;7.50;;
6424;SDS011;12193;42.642;23.384;2022-10-28T08:49:44;20.33;;;7.97;;
6424;SDS011;12193;42.642;23.384;2022-10-28T08:52:22;13.23;;;6.93;;
6424;SDS011;12193;42.642;23.384;2022-10-28T08:55:01;11.70;;;7.07;;
6424;SDS011;12193;42.642;23.384;2022-10-28T08:57:37;14.17;;;7.17;;
6424;SDS011;12193;42.642;23.384;2022-10-28T09:00:15;16.87;;;7.23;;
6424;SDS011;12193;42.642;23.384;2022-10-28T09:05:44;17.47;;;6.87;;
6424;SDS011;12193;42.642;23.384;2022-10-28T09:08:18;14.30;;;6.80;;
6424;SDS011;12193;42.642;23.384;2022-10-28T09:14:00;16.93;;;6.27;;
6424;SDS011;12193;42.642;23.384;2022-10-28T09:16:44;19.90;;;7.00;;
6424;SDS011;12193;42.642;23.384;2022-10-28T09:19:18;22.20;;;7.77;;
6424;SDS011;12193;42.642;23.384;2022-10-28T09:22:05;17.30;;;7.13;;
6424;SDS011;12193;42.642;23.384;2022-10-28T09:24:44;15.53;;;7.60;;
6424;SDS011;12193;42.642;23.384;2022-10-28T09:27:20;21.50;;;7.73;;
6424;SDS011;12193;42.642;23.384;2022-10-28T09:30:04;15.23;;;7.80;;
6424;SDS011;12193;42.642;23.384;2022-10-28T09:32:52;17.93;;;7.47;;
6424;SDS011;12193;42.642;23.384;2022-10-28T09:35:35;17.17;;;7.50;;
6424;SDS011;12193;42.642;23.384;2022-10-28T09:38:14;13.43;;;5.57;;
6424;SDS011;12193;42.642;23.384;2022-10-28T09:40:50;12.00;;;5.53;;
6424;SDS011;12193;42.642;23.384;2022-10-28T09:43:24;11.90;;;5.37;;
6424;SDS011;12193;42.642;23.384;2022-10-28T09:45:56;9.47;;;4.93;;
6424;SDS011;12193;42.642;23.384;2022-10-28T09:48:32;10.37;;;4.90;;
6424;SDS011;12193;42.642;23.384;2022-10-28T09:51:04;11.00;;;4.77;;
6424;SDS011;12193;42.642;23.384;2022-10-28T09:53:38;7.27;;;4.27;;
6424;SDS011;12193;42.642;23.384;2022-10-28T09:56:11;8.70;;;4.90;;
6424;SDS011;12193;42.642;23.384;2022-10-28T09:58:42;9.43;;;4.73;;
6424;SDS011;12193;42.642;23.384;2022-10-28T10:01:15;14.87;;;5.40;;
6424;SDS011;12193;42.642;23.384;2022-10-28T10:03:46;8.20;;;5.23;;
6424;SDS011;12193;42.642;23.384;2022-10-28T10:06:18;12.50;;;4.77;;
6424;SDS011;12193;42.642;23.384;2022-10-28T10:08:54;8.90;;;4.20;;
6424;SDS011;12193;42.642;23.384;2022-10-28T10:11:26;7.90;;;4.57;;
6424;SDS011;12193;42.642;23.384;2022-10-28T10:14:02;12.30;;;3.90;;
6424;SDS011;12193;42.642;23.384;2022-10-28T10:16:37;18.07;;;4.83;;
6424;SDS011;12193;42.642;23.384;2022-10-28T10:19:09;8.20;;;5.70;;
6424;SDS011;12193;42.642;23.384;2022-10-28T10:21:39;7.70;;;3.63;;
6424;SDS011;12193;42.642;23.384;2022-10-28T10:27:11;6.57;;;3.80;;
6424;SDS011;12193;42.642;23.384;2022-10-28T10:29:46;5.10;;;3.20;;
6424;SDS011;12193;42.642;23.384;2022-10-28T10:32:18;5.57;;;3.10;;
6424;SDS011;12193;42.642;23.384;2022-10-28T10:34:55;4.33;;;3.13;;
6424;SDS011;12193;42.642;23.384;2022-10-28T10:37:27;3.63;;;2.80;;
6424;SDS011;12193;42.642;23.384;2022-10-28T10:42:52;5.20;;;3.13;;
6424;SDS011;12193;42.642;23.384;2022-10-28T10:45:22;6.17;;;3.13;;
6424;SDS011;12193;42.642;23.384;2022-10-28T10:48:06;5.40;;;3.30;;
6424;SDS011;12193;42.642;23.384;2022-10-28T10:50:40;6.27;;;3.10;;
6424;SDS011;12193;42.642;23.384;2022-10-28T10:53:16;5.97;;;3.30;;
6424;SDS011;12193;42.642;23.384;2022-10-28T10:55:51;7.77;;;3.60;;
6424;SDS011;12193;42.642;23.384;2022-10-28T10:58:23;4.87;;;3.27;;
6424;SDS011;12193;42.642;23.384;2022-10-28T11:00:57;8.80;;;3.50;;
6424;SDS011;12193;42.642;23.384;2022-10-28T11:03:29;10.30;;;3.40;;
6424;SDS011;12193;42.642;23.384;2022-10-28T11:06:04;5.63;;;3.70;;
6424;SDS011;12193;42.642;23.384;2022-10-28T11:08:35;9.47;;;3.83;;
6424;SDS011;12193;42.642;23.384;2022-10-28T11:11:12;11.33;;;4.00;;
6424;SDS011;12193;42.642;23.384;2022-10-28T11:13:46;5.80;;;3.90;;
6424;SDS011;12193;42.642;23.384;2022-10-28T11:16:17;5.13;;;3.63;;
6424;SDS011;12193;42.642;23.384;2022-10-28T11:18:48;6.53;;;3.57;;
6424;SDS011;12193;42.642;23.384;2022-10-28T11:27:12;5.80;;;3.40;;
6424;SDS011;12193;42.642;23.384;2022-10-28T11:29:51;7.30;;;3.37;;
6424;SDS011;12193;42.642;23.384;2022-10-28T11:32:35;5.90;;;3.67;;
6424;SDS011;12193;42.642;23.384;2022-10-28T11:38:05;5.50;;;4.00;;
6424;SDS011;12193;42.642;23.384;2022-10-28T11:40:51;10.83;;;3.67;;
6424;SDS011;12193;42.642;23.384;2022-10-28T11:43:32;7.83;;;3.73;;
6424;SDS011;12193;42.642;23.384;2022-10-28T11:46:12;6.67;;;3.37;;
6424;SDS011;12193;42.642;23.384;2022-10-28T11:48:53;4.67;;;3.33;;
6424;SDS011;12193;42.642;23.384;2022-10-28T11:51:35;9.40;;;3.70;;
6424;SDS011;12193;42.642;23.384;2022-10-28T11:57:11;4.60;;;3.20;;
6424;SDS011;12193;42.642;23.384;2022-10-28T11:59:53;6.60;;;3.03;;
6424;SDS011;12193;42.642;23.384;2022-10-28T12:02:40;4.20;;;3.00;;
6424;SDS011;12193;42.642;23.384;2022-10-28T12:05:30;4.97;;;3.30;;
6424;SDS011;12193;42.642;23.384;2022-10-28T12:08:12;5.27;;;3.40;;
6424;SDS011;12193;42.642;23.384;2022-10-28T12:10:54;8.07;;;3.80;;
6424;SDS011;12193;42.642;23.384;2022-10-28T12:13:33;4.33;;;3.13;;
6424;SDS011;12193;42.642;23.384;2022-10-28T12:16:11;5.77;;;3.10;;
6424;SDS011;12193;42.642;23.384;2022-10-28T12:18:47;7.60;;;3.30;;
6424;SDS011;12193;42.642;23.384;2022-10-28T12:21:24;4.40;;;3.00;;
6424;SDS011;12193;42.642;23.384;2022-10-28T12:23:59;8.50;;;3.40;;
6424;SDS011;12193;42.642;23.384;2022-10-28T12:26:32;8.50;;;3.00;;
6424;SDS011;12193;42.642;23.384;2022-10-28T12:29:08;5.23;;;3.00;;
6424;SDS011;12193;42.642;23.384;2022-10-28T12:31:47;5.83;;;3.10;;
6424;SDS011;12193;42.642;23.384;2022-10-28T12:34:21;5.70;;;3.10;;
6424;SDS011;12193;42.642;23.384;2022-10-28T12:36:57;4.10;;;3.20;;
6424;SDS011;12193;42.642;23.384;2022-10-28T12:39:30;8.10;;;3.50;;
6424;SDS011;12193;42.642;23.384;2022-10-28T12:42:03;5.13;;;3.00;;
6424;SDS011;12193;42.642;23.384;2022-10-28T12:44:40;4.73;;;3.33;;
6424;SDS011;12193;42.642;23.384;2022-10-28T12:47:15;7.13;;;3.10;;
6424;SDS011;12193;42.642;23.384;2022-10-28T12:49:56;4.20;;;3.17;;
6424;SDS011;12193;42.642;23.384;2022-10-28T12:52:42;5.43;;;2.70;;
6424;SDS011;12193;42.642;23.384;2022-10-28T12:55:18;7.30;;;3.57;;
6424;SDS011;12193;42.642;23.384;2022-10-28T12:57:59;3.77;;;2.70;;
6424;SDS011;12193;42.642;23.384;2022-10-28T13:00:33;6.50;;;3.60;;
6424;SDS011;12193;42.642;23.384;2022-10-28T13:03:10;8.17;;;3.30;;
6424;SDS011;12193;42.642;23.384;2022-10-28T13:05:41;5.23;;;3.30;;
6424;SDS011;12193;42.642;23.384;2022-10-28T13:11:42;4.97;;;3.40;;
6424;SDS011;12193;42.642;23.384;2022-10-28T13:14:38;5.10;;;2.97;;
6424;SDS011;12193;42.642;23.384;2022-10-28T13:17:23;7.27;;;3.13;;
6424;SDS011;12193;42.642;23.384;2022-10-28T13:20:13;5.03;;;3.50;;
6424;SDS011;12193;42.642;23.384;2022-10-28T13:22:52;5.03;;;3.10;;
6424;SDS011;12193;42.642;23.384;2022-10-28T13:25:35;6.97;;;3.50;;
6424;SDS011;12193;42.642;23.384;2022-10-28T13:28:20;3.80;;;2.90;;
6424;SDS011;12193;42.642;23.384;2022-10-28T13:30:54;5.03;;;3.00;;
6424;SDS011;12193;42.642;23.384;2022-10-28T13:33:25;10.27;;;3.50;;
6424;SDS011;12193;42.642;23.384;2022-10-28T13:36:08;5.90;;;3.33;;
6424;SDS011;12193;42.642;23.384;2022-10-28T13:38:48;5.23;;;3.30;;
6424;SDS011;12193;42.642;23.384;2022-10-28T13:41:27;4.17;;;3.00;;
6424;SDS011;12193;42.642;23.384;2022-10-28T13:56:20;4.70;;;3.00;;
6424;SDS011;12193;42.642;23.384;2022-10-28T13:58:56;6.13;;;3.00;;
6424;SDS011;12193;42.642;23.384;2022-10-28T14:01:36;5.27;;;3.00;;
6424;SDS011;12193;42.642;23.384;2022-10-28T14:04:19;5.60;;;3.00;;
6424;SDS011;12193;42.642;23.384;2022-10-28T14:09:50;10.53;;;3.60;;
6424;SDS011;12193;42.642;23.384;2022-10-28T14:12:26;5.57;;;3.40;;
6424;SDS011;12193;42.642;23.384;2022-10-28T14:15:02;6.60;;;3.30;;
6424;SDS011;12193;42.642;23.384;2022-10-28T14:17:35;5.43;;;3.10;;
6424;SDS011;12193;42.642;23.384;2022-10-28T14:20:17;4.03;;;3.00;;
6424;SDS011;12193;42.642;23.384;2022-10-28T14:22:51;4.07;;;3.47;;
6424;SDS011;12193;42.642;23.384;2022-10-28T14:37:30;12.60;;;5.63;;
6424;SDS011;12193;42.642;23.384;2022-10-28T14:40:32;26.03;;;4.83;;
6424;SDS011;12193;42.642;23.384;2022-10-28T14:43:09;6.20;;;2.97;;
6424;SDS011;12193;42.642;23.384;2022-10-28T14:45:57;5.97;;;2.97;;
6424;SDS011;12193;42.642;23.384;2022-10-28T14:48:42;3.90;;;2.93;;
6424;SDS011;12193;42.642;23.384;2022-10-28T14:51:16;4.00;;;2.80;;
6424;SDS011;12193;42.642;23.384;2022-10-28T14:53:48;6.13;;;3.20;;
6424;SDS011;12193;42.642;23.384;2022-10-28T14:56:23;6.60;;;2.90;;
6424;SDS011;12193;42.642;23.384;2022-10-28T14:58:53;5.67;;;2.97;;
6424;SDS011;12193;42.642;23.384;2022-10-28T15:01:30;4.40;;;2.97;;
6424;SDS011;12193;42.642;23.384;2022-10-28T15:04:14;4.93;;;2.90;;
6424;SDS011;12193;42.642;23.384;2022-10-28T15:06:45;6.13;;;2.90;;
6424;SDS011;12193;42.642;23.384;2022-10-28T15:09:18;4.57;;;3.00;;
6424;SDS011;12193;42.642;23.384;2022-10-28T15:11:51;9.10;;;4.33;;
6424;SDS011;12193;42.642;23.384;2022-10-28T15:14:25;14.67;;;5.40;;
6424;SDS011;12193;42.642;23.384;2022-10-28T15:17:08;9.97;;;5.33;;
